sensor_id;sensor_type;location;lat;lon;timestamp;temperature;humidity
39401;DHT22;54391;50.000;7.360;2022-08-30T00:00:49;17.20;1.00
39401;DHT22;54391;50.000;7.360;2022-08-30T00:03:29;17.20;1.00
39401;DHT22;54391;50.000;7.360;2022-08-30T00:05:56;17.20;1.00
39401;DHT22;54391;50.000;7.360;2022-08-30T00:08:23;17.20;1.00
39401;DHT22;54391;50.000;7.360;2022-08-30T00:10:51;17.20;1.00
39401;DHT22;54391;50.000;7.360;2022-08-30T00:13:22;17.10;1.00
39401;DHT22;54391;50.000;7.360;2022-08-30T00:15:50;17.20;1.00
39401;DHT22;54391;50.000;7.360;2022-08-30T00:18:18;17.10;1.00
39401;DHT22;54391;50.000;7.360;2022-08-30T00:20:47;17.10;1.00
39401;DHT22;54391;50.000;7.360;2022-08-30T00:23:15;17.00;1.00
39401;DHT22;54391;50.000;7.360;2022-08-30T00:25:43;16.90;1.00
39401;DHT22;54391;50.000;7.360;2022-08-30T00:28:11;16.80;1.00
39401;DHT22;54391;50.000;7.360;2022-08-30T00:30:41;16.50;1.00
39401;DHT22;54391;50.000;7.360;2022-08-30T00:33:09;16.50;1.00
39401;DHT22;54391;50.000;7.360;2022-08-30T00:35:37;16.30;1.00
39401;DHT22;54391;50.000;7.360;2022-08-30T00:38:05;16.20;1.00
39401;DHT22;54391;50.000;7.360;2022-08-30T00:40:32;16.10;1.00
39401;DHT22;54391;50.000;7.360;2022-08-30T00:43:03;16.20;1.00
39401;DHT22;54391;50.000;7.360;2022-08-30T00:45:33;16.10;1.00
39401;DHT22;54391;50.000;7.360;2022-08-30T00:48:03;16.20;1.00
39401;DHT22;54391;50.000;7.360;2022-08-30T00:50:39;16.20;1.00
39401;DHT22;54391;50.000;7.360;2022-08-30T00:53:11;16.30;1.00
39401;DHT22;54391;50.000;7.360;2022-08-30T00:55:40;16.30;1.00
39401;DHT22;54391;50.000;7.360;2022-08-30T00:58:11;16.20;1.00
39401;DHT22;54391;50.000;7.360;2022-08-30T01:00:41;16.20;1.00
39401;DHT22;54391;50.000;7.360;2022-08-30T01:03:09;16.10;1.00
39401;DHT22;54391;50.000;7.360;2022-08-30T01:05:37;16.00;1.00
39401;DHT22;54391;50.000;7.360;2022-08-30T01:08:05;16.00;1.00
39401;DHT22;54391;50.000;7.360;2022-08-30T01:10:33;16.00;1.00
39401;DHT22;54391;50.000;7.360;2022-08-30T01:13:02;15.90;1.00
39401;DHT22;54391;50.000;7.360;2022-08-30T01:15:30;16.00;1.00
39401;DHT22;54391;50.000;7.360;2022-08-30T01:17:59;16.00;1.00
39401;DHT22;54391;50.000;7.360;2022-08-30T01:23:07;16.10;1.00
39401;DHT22;54391;50.000;7.360;2022-08-30T01:25:37;16.10;1.00
39401;DHT22;54391;50.000;7.360;2022-08-30T01:28:09;16.10;1.00
39401;DHT22;54391;50.000;7.360;2022-08-30T01:30:37;16.10;1.00
39401;DHT22;54391;50.000;7.360;2022-08-30T01:33:06;16.10;1.00
39401;DHT22;54391;50.000;7.360;2022-08-30T01:35:42;16.10;1.00
39401;DHT22;54391;50.000;7.360;2022-08-30T01:38:12;16.20;1.00
39401;DHT22;54391;50.000;7.360;2022-08-30T01:40:39;16.10;1.00
39401;DHT22;54391;50.000;7.360;2022-08-30T01:43:07;16.10;1.00
39401;DHT22;54391;50.000;7.360;2022-08-30T01:45:34;16.10;1.00
39401;DHT22;54391;50.000;7.360;2022-08-30T01:48:02;16.10;1.00
39401;DHT22;54391;50.000;7.360;2022-08-30T01:50:29;16.10;1.00
39401;DHT22;54391;50.000;7.360;2022-08-30T01:52:57;16.00;1.00
39401;DHT22;54391;50.000;7.360;2022-08-30T01:55:26;16.00;1.00
39401;DHT22;54391;50.000;7.360;2022-08-30T01:57:53;16.00;1.00
39401;DHT22;54391;50.000;7.360;2022-08-30T02:00:21;16.00;1.00
39401;DHT22;54391;50.000;7.360;2022-08-30T02:02:48;15.90;1.00
39401;DHT22;54391;50.000;7.360;2022-08-30T02:05:16;15.90;1.00
39401;DHT22;54391;50.000;7.360;2022-08-30T02:07:43;15.80;1.00
39401;DHT22;54391;50.000;7.360;2022-08-30T02:10:11;15.80;1.00
39401;DHT22;54391;50.000;7.360;2022-08-30T02:15:09;15.90;1.00
39401;DHT22;54391;50.000;7.360;2022-08-30T02:17:37;16.00;1.00
39401;DHT22;54391;50.000;7.360;2022-08-30T02:20:06;16.00;1.00
39401;DHT22;54391;50.000;7.360;2022-08-30T02:22:33;16.00;1.00
39401;DHT22;54391;50.000;7.360;2022-08-30T02:25:02;16.10;1.00
39401;DHT22;54391;50.000;7.360;2022-08-30T02:27:30;16.10;1.00
39401;DHT22;54391;50.000;7.360;2022-08-30T02:29:58;16.10;1.00
39401;DHT22;54391;50.000;7.360;2022-08-30T02:32:26;16.10;1.00
39401;DHT22;54391;50.000;7.360;2022-08-30T02:37:20;16.20;1.00
39401;DHT22;54391;50.000;7.360;2022-08-30T02:39:48;16.30;1.00
39401;DHT22;54391;50.000;7.360;2022-08-30T02:42:15;16.20;1.00
39401;DHT22;54391;50.000;7.360;2022-08-30T02:44:42;16.30;1.00
39401;DHT22;54391;50.000;7.360;2022-08-30T02:47:11;16.20;1.00
39401;DHT22;54391;50.000;7.360;2022-08-30T02:49:38;16.20;1.00
39401;DHT22;54391;50.000;7.360;2022-08-30T02:52:06;16.40;1.00
39401;DHT22;54391;50.000;7.360;2022-08-30T02:54:33;16.40;1.00
39401;DHT22;54391;50.000;7.360;2022-08-30T02:57:01;16.30;1.00
39401;DHT22;54391;50.000;7.360;2022-08-30T02:59:31;16.30;1.00
39401;DHT22;54391;50.000;7.360;2022-08-30T03:04:30;16.10;1.00
39401;DHT22;54391;50.000;7.360;2022-08-30T03:06:57;16.00;1.00
39401;DHT22;54391;50.000;7.360;2022-08-30T03:09:25;16.00;1.00
39401;DHT22;54391;50.000;7.360;2022-08-30T03:11:52;15.90;1.00
39401;DHT22;54391;50.000;7.360;2022-08-30T03:14:19;16.00;1.00
39401;DHT22;54391;50.000;7.360;2022-08-30T03:16:47;16.10;1.00
39401;DHT22;54391;50.000;7.360;2022-08-30T03:19:15;16.10;1.00
39401;DHT22;54391;50.000;7.360;2022-08-30T03:21:44;16.10;1.00
39401;DHT22;54391;50.000;7.360;2022-08-30T03:24:11;16.10;1.00
39401;DHT22;54391;50.000;7.360;2022-08-30T03:26:39;16.00;1.00
39401;DHT22;54391;50.000;7.360;2022-08-30T03:29:06;16.10;1.00
39401;DHT22;54391;50.000;7.360;2022-08-30T03:31:34;16.10;1.00
39401;DHT22;54391;50.000;7.360;2022-08-30T03:34:01;16.10;1.00
39401;DHT22;54391;50.000;7.360;2022-08-30T03:41:29;16.10;1.00
39401;DHT22;54391;50.000;7.360;2022-08-30T03:43:57;16.10;1.00
39401;DHT22;54391;50.000;7.360;2022-08-30T03:46:24;15.90;1.00
39401;DHT22;54391;50.000;7.360;2022-08-30T03:51:20;15.80;1.00
39401;DHT22;54391;50.000;7.360;2022-08-30T03:53:48;15.80;1.00
39401;DHT22;54391;50.000;7.360;2022-08-30T03:56:18;15.80;1.00
39401;DHT22;54391;50.000;7.360;2022-08-30T04:01:13;15.70;1.00
39401;DHT22;54391;50.000;7.360;2022-08-30T04:03:41;15.70;1.00
39401;DHT22;54391;50.000;7.360;2022-08-30T04:06:08;15.60;1.00
39401;DHT22;54391;50.000;7.360;2022-08-30T04:08:35;15.50;1.00
39401;DHT22;54391;50.000;7.360;2022-08-30T04:11:04;15.50;1.00
39401;DHT22;54391;50.000;7.360;2022-08-30T04:13:33;15.40;1.00
39401;DHT22;54391;50.000;7.360;2022-08-30T04:16:01;15.50;1.00
39401;DHT22;54391;50.000;7.360;2022-08-30T04:20:56;15.60;1.00
39401;DHT22;54391;50.000;7.360;2022-08-30T04:23:23;12.60;1.00
39401;DHT22;54391;50.000;7.360;2022-08-30T04:28:18;15.60;1.00
39401;DHT22;54391;50.000;7.360;2022-08-30T04:35:44;15.50;1.00
39401;DHT22;54391;50.000;7.360;2022-08-30T04:38:13;15.40;1.00
39401;DHT22;54391;50.000;7.360;2022-08-30T04:40:41;15.30;1.00
39401;DHT22;54391;50.000;7.360;2022-08-30T04:45:38;15.30;1.00
39401;DHT22;54391;50.000;7.360;2022-08-30T04:48:07;15.30;1.00
39401;DHT22;54391;50.000;7.360;2022-08-30T04:50:35;15.50;1.00
39401;DHT22;54391;50.000;7.360;2022-08-30T04:53:11;15.50;1.00
39401;DHT22;54391;50.000;7.360;2022-08-30T04:55:39;15.40;1.00
39401;DHT22;54391;50.000;7.360;2022-08-30T05:00:34;15.40;1.00
39401;DHT22;54391;50.000;7.360;2022-08-30T05:03:02;15.40;1.00
39401;DHT22;54391;50.000;7.360;2022-08-30T05:05:31;15.60;1.00
39401;DHT22;54391;50.000;7.360;2022-08-30T05:08:09;15.60;1.00
39401;DHT22;54391;50.000;7.360;2022-08-30T05:10:38;15.70;1.00
39401;DHT22;54391;50.000;7.360;2022-08-30T05:13:06;15.70;1.00
39401;DHT22;54391;50.000;7.360;2022-08-30T05:15:33;17.30;1.00
39401;DHT22;54391;50.000;7.360;2022-08-30T05:18:03;15.80;1.00
39401;DHT22;54391;50.000;7.360;2022-08-30T05:20:34;15.90;1.00
39401;DHT22;54391;50.000;7.360;2022-08-30T05:23:02;15.90;1.00
39401;DHT22;54391;50.000;7.360;2022-08-30T05:25:31;16.00;1.00
39401;DHT22;54391;50.000;7.360;2022-08-30T05:27:59;16.00;1.00
39401;DHT22;54391;50.000;7.360;2022-08-30T05:30:30;16.10;1.00
39401;DHT22;54391;50.000;7.360;2022-08-30T05:35:25;16.30;1.00
39401;DHT22;54391;50.000;7.360;2022-08-30T05:37:54;16.30;1.00
39401;DHT22;54391;50.000;7.360;2022-08-30T05:40:22;16.40;1.00
39401;DHT22;54391;50.000;7.360;2022-08-30T05:42:49;16.50;1.00
39401;DHT22;54391;50.000;7.360;2022-08-30T05:45:16;16.40;1.00
39401;DHT22;54391;50.000;7.360;2022-08-30T05:47:44;16.40;1.00
39401;DHT22;54391;50.000;7.360;2022-08-30T05:50:12;16.60;1.00
39401;DHT22;54391;50.000;7.360;2022-08-30T05:52:41;16.70;1.00
39401;DHT22;54391;50.000;7.360;2022-08-30T05:55:11;17.00;1.00
39401;DHT22;54391;50.000;7.360;2022-08-30T05:57:39;16.90;1.00
39401;DHT22;54391;50.000;7.360;2022-08-30T06:00:12;17.10;1.00
39401;DHT22;54391;50.000;7.360;2022-08-30T06:02:40;17.30;1.00
39401;DHT22;54391;50.000;7.360;2022-08-30T06:05:09;17.30;1.00
39401;DHT22;54391;50.000;7.360;2022-08-30T06:07:37;17.50;1.00
39401;DHT22;54391;50.000;7.360;2022-08-30T06:10:05;17.60;1.00
39401;DHT22;54391;50.000;7.360;2022-08-30T06:12:34;18.30;1.00
39401;DHT22;54391;50.000;7.360;2022-08-30T06:15:01;18.70;1.00
39401;DHT22;54391;50.000;7.360;2022-08-30T06:17:28;19.30;1.00
39401;DHT22;54391;50.000;7.360;2022-08-30T06:19:56;19.70;1.00
39401;DHT22;54391;50.000;7.360;2022-08-30T06:22:23;20.40;1.00
39401;DHT22;54391;50.000;7.360;2022-08-30T06:24:50;20.50;1.00
39401;DHT22;54391;50.000;7.360;2022-08-30T06:27:18;20.40;1.00
39401;DHT22;54391;50.000;7.360;2022-08-30T06:29:49;20.30;1.00
39401;DHT22;54391;50.000;7.360;2022-08-30T06:32:17;20.70;1.00
39401;DHT22;54391;50.000;7.360;2022-08-30T06:34:44;21.00;1.00
39401;DHT22;54391;50.000;7.360;2022-08-30T06:37:13;21.20;1.00
39401;DHT22;54391;50.000;7.360;2022-08-30T06:39:41;22.00;1.00
39401;DHT22;54391;50.000;7.360;2022-08-30T06:42:08;23.20;1.00
39401;DHT22;54391;50.000;7.360;2022-08-30T06:44:35;22.90;1.00
39401;DHT22;54391;50.000;7.360;2022-08-30T06:47:05;23.10;1.00
39401;DHT22;54391;50.000;7.360;2022-08-30T06:49:32;22.90;1.00
39401;DHT22;54391;50.000;7.360;2022-08-30T06:51:59;22.90;1.00
39401;DHT22;54391;50.000;7.360;2022-08-30T06:54:27;22.90;1.00
39401;DHT22;54391;50.000;7.360;2022-08-30T06:59:22;23.60;1.00
39401;DHT22;54391;50.000;7.360;2022-08-30T07:01:49;23.50;1.00
39401;DHT22;54391;50.000;7.360;2022-08-30T07:04:18;23.80;1.00
39401;DHT22;54391;50.000;7.360;2022-08-30T07:06:45;23.70;1.00
39401;DHT22;54391;50.000;7.360;2022-08-30T07:09:12;23.30;1.00
39401;DHT22;54391;50.000;7.360;2022-08-30T07:11:40;23.80;1.00
39401;DHT22;54391;50.000;7.360;2022-08-30T07:14:08;23.70;1.00
39401;DHT22;54391;50.000;7.360;2022-08-30T07:16:35;24.00;1.00
39401;DHT22;54391;50.000;7.360;2022-08-30T07:19:04;24.40;1.00
39401;DHT22;54391;50.000;7.360;2022-08-30T07:21:34;24.40;1.00
39401;DHT22;54391;50.000;7.360;2022-08-30T07:24:03;24.60;1.00
39401;DHT22;54391;50.000;7.360;2022-08-30T07:26:32;25.30;1.00
39401;DHT22;54391;50.000;7.360;2022-08-30T07:29:01;25.90;1.00
39401;DHT22;54391;50.000;7.360;2022-08-30T07:31:29;26.60;1.00
39401;DHT22;54391;50.000;7.360;2022-08-30T07:33:57;26.20;1.00
39401;DHT22;54391;50.000;7.360;2022-08-30T07:36:25;26.10;1.00
39401;DHT22;54391;50.000;7.360;2022-08-30T07:38:53;25.50;1.00
39401;DHT22;54391;50.000;7.360;2022-08-30T07:41:23;25.80;1.00
39401;DHT22;54391;50.000;7.360;2022-08-30T07:43:51;25.90;1.00
39401;DHT22;54391;50.000;7.360;2022-08-30T07:46:20;25.30;1.00
39401;DHT22;54391;50.000;7.360;2022-08-30T07:48:47;25.20;1.00
39401;DHT22;54391;50.000;7.360;2022-08-30T07:51:18;25.50;1.00
39401;DHT22;54391;50.000;7.360;2022-08-30T07:53:46;25.60;1.00
39401;DHT22;54391;50.000;7.360;2022-08-30T07:56:15;26.20;1.00
39401;DHT22;54391;50.000;7.360;2022-08-30T07:58:43;26.20;1.00
39401;DHT22;54391;50.000;7.360;2022-08-30T08:01:11;26.90;1.00
39401;DHT22;54391;50.000;7.360;2022-08-30T08:03:40;27.10;1.00
39401;DHT22;54391;50.000;7.360;2022-08-30T08:06:09;27.10;1.00
39401;DHT22;54391;50.000;7.360;2022-08-30T08:08:38;27.50;1.00
39401;DHT22;54391;50.000;7.360;2022-08-30T08:11:07;27.80;1.00
39401;DHT22;54391;50.000;7.360;2022-08-30T08:13:36;27.60;1.00
39401;DHT22;54391;50.000;7.360;2022-08-30T08:16:03;27.70;1.00
39401;DHT22;54391;50.000;7.360;2022-08-30T08:18:31;28.30;1.00
39401;DHT22;54391;50.000;7.360;2022-08-30T08:20:59;28.40;1.00
39401;DHT22;54391;50.000;7.360;2022-08-30T08:23:29;28.20;1.00
39401;DHT22;54391;50.000;7.360;2022-08-30T08:25:56;28.70;1.00
39401;DHT22;54391;50.000;7.360;2022-08-30T08:28:24;28.70;1.00
39401;DHT22;54391;50.000;7.360;2022-08-30T08:30:52;28.20;1.00
39401;DHT22;54391;50.000;7.360;2022-08-30T08:33:20;28.10;1.00
39401;DHT22;54391;50.000;7.360;2022-08-30T08:35:47;28.40;1.00
39401;DHT22;54391;50.000;7.360;2022-08-30T08:38:15;28.70;1.00
39401;DHT22;54391;50.000;7.360;2022-08-30T08:40:49;28.50;1.00
39401;DHT22;54391;50.000;7.360;2022-08-30T08:43:22;28.40;1.00
39401;DHT22;54391;50.000;7.360;2022-08-30T08:45:55;28.20;1.00
39401;DHT22;54391;50.000;7.360;2022-08-30T08:48:32;29.30;1.00
39401;DHT22;54391;50.000;7.360;2022-08-30T08:51:01;29.60;1.00
39401;DHT22;54391;50.000;7.360;2022-08-30T08:53:50;29.60;1.00
39401;DHT22;54391;50.000;7.360;2022-08-30T08:56:22;29.50;1.00
39401;DHT22;54391;50.000;7.360;2022-08-30T08:58:51;28.70;1.00
39401;DHT22;54391;50.000;7.360;2022-08-30T09:01:23;29.00;1.00
39401;DHT22;54391;50.000;7.360;2022-08-30T09:03:51;28.70;1.00
39401;DHT22;54391;50.000;7.360;2022-08-30T09:06:29;28.90;1.00
39401;DHT22;54391;50.000;7.360;2022-08-30T09:08:59;30.10;1.00
39401;DHT22;54391;50.000;7.360;2022-08-30T09:11:30;30.80;1.00
39401;DHT22;54391;50.000;7.360;2022-08-30T09:13:58;30.30;1.00
39401;DHT22;54391;50.000;7.360;2022-08-30T09:16:52;29.00;1.00
39401;DHT22;54391;50.000;7.360;2022-08-30T09:19:35;29.30;1.00
39401;DHT22;54391;50.000;7.360;2022-08-30T09:22:18;30.90;1.00
39401;DHT22;54391;50.000;7.360;2022-08-30T09:24:48;31.20;1.00
39401;DHT22;54391;50.000;7.360;2022-08-30T09:27:21;31.00;1.00
39401;DHT22;54391;50.000;7.360;2022-08-30T09:29:51;30.70;1.00
39401;DHT22;54391;50.000;7.360;2022-08-30T09:32:25;30.90;1.00
39401;DHT22;54391;50.000;7.360;2022-08-30T09:34:53;31.50;1.00
39401;DHT22;54391;50.000;7.360;2022-08-30T09:37:25;30.70;1.00
39401;DHT22;54391;50.000;7.360;2022-08-30T09:39:53;31.80;1.00
39401;DHT22;54391;50.000;7.360;2022-08-30T09:42:23;31.20;1.00
39401;DHT22;54391;50.000;7.360;2022-08-30T09:44:52;31.50;1.00
39401;DHT22;54391;50.000;7.360;2022-08-30T09:47:37;31.40;1.00
39401;DHT22;54391;50.000;7.360;2022-08-30T09:50:09;31.60;1.00
39401;DHT22;54391;50.000;7.360;2022-08-30T09:52:46;31.70;1.00
39401;DHT22;54391;50.000;7.360;2022-08-30T09:55:33;31.50;1.00
39401;DHT22;54391;50.000;7.360;2022-08-30T09:58:08;31.20;1.00
39401;DHT22;54391;50.000;7.360;2022-08-30T10:00:40;31.20;1.00
39401;DHT22;54391;50.000;7.360;2022-08-30T10:03:24;31.20;1.00
39401;DHT22;54391;50.000;7.360;2022-08-30T10:06:01;32.00;1.00
39401;DHT22;54391;50.000;7.360;2022-08-30T10:08:41;31.90;1.00
39401;DHT22;54391;50.000;7.360;2022-08-30T10:11:15;31.50;1.00
39401;DHT22;54391;50.000;7.360;2022-08-30T10:14:05;31.40;1.00
39401;DHT22;54391;50.000;7.360;2022-08-30T10:16:44;29.80;1.00
39401;DHT22;54391;50.000;7.360;2022-08-30T10:19:30;29.90;1.00
39401;DHT22;54391;50.000;7.360;2022-08-30T10:22:07;30.00;1.00
39401;DHT22;54391;50.000;7.360;2022-08-30T10:24:39;30.30;1.00
39401;DHT22;54391;50.000;7.360;2022-08-30T10:27:12;30.90;1.00
39401;DHT22;54391;50.000;7.360;2022-08-30T10:29:45;31.80;1.00
39401;DHT22;54391;50.000;7.360;2022-08-30T10:32:19;31.30;1.00
39401;DHT22;54391;50.000;7.360;2022-08-30T10:34:53;31.50;1.00
39401;DHT22;54391;50.000;7.360;2022-08-30T10:37:25;32.10;1.00
39401;DHT22;54391;50.000;7.360;2022-08-30T10:39:55;32.10;1.00
39401;DHT22;54391;50.000;7.360;2022-08-30T10:42:27;31.90;1.00
39401;DHT22;54391;50.000;7.360;2022-08-30T10:45:02;30.80;1.00
39401;DHT22;54391;50.000;7.360;2022-08-30T10:47:35;30.90;1.00
39401;DHT22;54391;50.000;7.360;2022-08-30T10:50:13;31.10;1.00
39401;DHT22;54391;50.000;7.360;2022-08-30T10:52:46;31.20;1.00
39401;DHT22;54391;50.000;7.360;2022-08-30T10:55:18;30.90;1.00
39401;DHT22;54391;50.000;7.360;2022-08-30T10:57:48;30.90;1.00
39401;DHT22;54391;50.000;7.360;2022-08-30T11:00:22;30.40;1.00
39401;DHT22;54391;50.000;7.360;2022-08-30T11:03:13;30.20;1.00
39401;DHT22;54391;50.000;7.360;2022-08-30T11:06:07;30.60;1.00
39401;DHT22;54391;50.000;7.360;2022-08-30T11:08:48;31.80;1.00
39401;DHT22;54391;50.000;7.360;2022-08-30T11:11:25;32.30;1.00
39401;DHT22;54391;50.000;7.360;2022-08-30T11:13:55;32.60;1.00
39401;DHT22;54391;50.000;7.360;2022-08-30T11:16:34;32.40;1.00
39401;DHT22;54391;50.000;7.360;2022-08-30T11:19:02;31.60;1.00
39401;DHT22;54391;50.000;7.360;2022-08-30T11:21:41;32.00;1.00
39401;DHT22;54391;50.000;7.360;2022-08-30T11:24:12;31.10;1.00
39401;DHT22;54391;50.000;7.360;2022-08-30T11:26:56;30.60;1.00
39401;DHT22;54391;50.000;7.360;2022-08-30T11:29:30;29.70;1.00
39401;DHT22;54391;50.000;7.360;2022-08-30T11:32:00;30.60;1.00
39401;DHT22;54391;50.000;7.360;2022-08-30T11:34:57;30.50;1.00
39401;DHT22;54391;50.000;7.360;2022-08-30T11:37:38;29.90;1.00
39401;DHT22;54391;50.000;7.360;2022-08-30T11:46:18;29.80;1.00
39401;DHT22;54391;50.000;7.360;2022-08-30T11:48:50;29.80;1.00
39401;DHT22;54391;50.000;7.360;2022-08-30T11:51:31;30.10;1.00
39401;DHT22;54391;50.000;7.360;2022-08-30T11:54:11;30.20;1.00
39401;DHT22;54391;50.000;7.360;2022-08-30T11:56:49;30.00;1.00
39401;DHT22;54391;50.000;7.360;2022-08-30T11:59:23;29.70;1.00
39401;DHT22;54391;50.000;7.360;2022-08-30T12:01:54;29.00;1.00
39401;DHT22;54391;50.000;7.360;2022-08-30T12:04:34;29.10;1.00
39401;DHT22;54391;50.000;7.360;2022-08-30T12:07:04;29.30;1.00
39401;DHT22;54391;50.000;7.360;2022-08-30T12:10:19;29.70;1.00
39401;DHT22;54391;50.000;7.360;2022-08-30T12:12:53;30.10;1.00
39401;DHT22;54391;50.000;7.360;2022-08-30T12:15:53;28.60;1.00
39401;DHT22;54391;50.000;7.360;2022-08-30T12:18:44;28.50;1.00
39401;DHT22;54391;50.000;7.360;2022-08-30T12:21:24;29.00;1.00
39401;DHT22;54391;50.000;7.360;2022-08-30T12:23:57;29.10;1.00
39401;DHT22;54391;50.000;7.360;2022-08-30T12:26:32;28.80;1.00
39401;DHT22;54391;50.000;7.360;2022-08-30T12:29:21;28.90;1.00
39401;DHT22;54391;50.000;7.360;2022-08-30T12:31:54;29.00;1.00
39401;DHT22;54391;50.000;7.360;2022-08-30T12:34:26;29.00;1.00
39401;DHT22;54391;50.000;7.360;2022-08-30T12:36:56;28.80;1.00
39401;DHT22;54391;50.000;7.360;2022-08-30T12:39:27;29.30;1.00
39401;DHT22;54391;50.000;7.360;2022-08-30T12:41:55;29.40;1.00
39401;DHT22;54391;50.000;7.360;2022-08-30T12:44:25;29.40;1.00
39401;DHT22;54391;50.000;7.360;2022-08-30T12:46:55;29.40;1.00
39401;DHT22;54391;50.000;7.360;2022-08-30T12:49:27;29.40;1.00
39401;DHT22;54391;50.000;7.360;2022-08-30T12:52:14;27.80;1.00
39401;DHT22;54391;50.000;7.360;2022-08-30T12:54:41;27.90;1.00
39401;DHT22;54391;50.000;7.360;2022-08-30T12:57:09;28.00;1.00
39401;DHT22;54391;50.000;7.360;2022-08-30T12:59:47;28.00;1.00
39401;DHT22;54391;50.000;7.360;2022-08-30T13:02:19;28.40;1.00
39401;DHT22;54391;50.000;7.360;2022-08-30T13:04:49;28.00;1.00
39401;DHT22;54391;50.000;7.360;2022-08-30T13:07:26;28.00;1.00
39401;DHT22;54391;50.000;7.360;2022-08-30T13:10:14;28.00;1.00
39401;DHT22;54391;50.000;7.360;2022-08-30T13:12:59;28.40;1.00
39401;DHT22;54391;50.000;7.360;2022-08-30T13:15:29;28.20;1.00
39401;DHT22;54391;50.000;7.360;2022-08-30T13:18:16;28.00;1.00
39401;DHT22;54391;50.000;7.360;2022-08-30T13:20:46;27.50;1.00
39401;DHT22;54391;50.000;7.360;2022-08-30T13:23:21;27.50;1.00
39401;DHT22;54391;50.000;7.360;2022-08-30T13:25:49;27.60;1.00
39401;DHT22;54391;50.000;7.360;2022-08-30T13:28:17;27.40;1.00
39401;DHT22;54391;50.000;7.360;2022-08-30T13:30:47;27.30;1.00
39401;DHT22;54391;50.000;7.360;2022-08-30T13:35:42;27.30;1.00
39401;DHT22;54391;50.000;7.360;2022-08-30T13:38:11;28.20;1.00
39401;DHT22;54391;50.000;7.360;2022-08-30T13:40:38;28.30;1.00
39401;DHT22;54391;50.000;7.360;2022-08-30T13:43:06;28.20;1.00
39401;DHT22;54391;50.000;7.360;2022-08-30T13:45:33;27.70;1.00
39401;DHT22;54391;50.000;7.360;2022-08-30T13:48:03;27.50;1.00
39401;DHT22;54391;50.000;7.360;2022-08-30T13:50:31;26.70;1.00
39401;DHT22;54391;50.000;7.360;2022-08-30T13:55:29;27.60;1.00
39401;DHT22;54391;50.000;7.360;2022-08-30T13:57:56;27.50;1.00
39401;DHT22;54391;50.000;7.360;2022-08-30T14:00:24;27.70;1.00
39401;DHT22;54391;50.000;7.360;2022-08-30T14:02:52;27.70;1.00
39401;DHT22;54391;50.000;7.360;2022-08-30T14:05:21;27.60;1.00
39401;DHT22;54391;50.000;7.360;2022-08-30T14:07:48;27.70;1.00
39401;DHT22;54391;50.000;7.360;2022-08-30T14:10:17;27.50;1.00
39401;DHT22;54391;50.000;7.360;2022-08-30T14:15:15;27.20;1.00
39401;DHT22;54391;50.000;7.360;2022-08-30T14:17:42;27.20;1.00
39401;DHT22;54391;50.000;7.360;2022-08-30T14:20:09;27.40;1.00
39401;DHT22;54391;50.000;7.360;2022-08-30T14:22:37;27.80;1.00
39401;DHT22;54391;50.000;7.360;2022-08-30T14:25:05;28.00;1.00
39401;DHT22;54391;50.000;7.360;2022-08-30T14:27:32;28.30;1.00
39401;DHT22;54391;50.000;7.360;2022-08-30T14:30:01;28.40;1.00
39401;DHT22;54391;50.000;7.360;2022-08-30T14:32:28;28.10;1.00
39401;DHT22;54391;50.000;7.360;2022-08-30T14:34:56;27.90;1.00
39401;DHT22;54391;50.000;7.360;2022-08-30T14:37:23;27.80;1.00
39401;DHT22;54391;50.000;7.360;2022-08-30T14:39:50;27.70;1.00
39401;DHT22;54391;50.000;7.360;2022-08-30T14:42:18;27.80;1.00
39401;DHT22;54391;50.000;7.360;2022-08-30T14:47:14;27.60;1.00
39401;DHT22;54391;50.000;7.360;2022-08-30T14:49:46;27.70;1.00
39401;DHT22;54391;50.000;7.360;2022-08-30T14:52:13;28.00;1.00
39401;DHT22;54391;50.000;7.360;2022-08-30T14:54:40;28.10;1.00
39401;DHT22;54391;50.000;7.360;2022-08-30T14:57:07;28.20;1.00
39401;DHT22;54391;50.000;7.360;2022-08-30T14:59:35;28.30;1.00
39401;DHT22;54391;50.000;7.360;2022-08-30T15:02:02;28.10;1.00
39401;DHT22;54391;50.000;7.360;2022-08-30T15:04:31;27.90;1.00
39401;DHT22;54391;50.000;7.360;2022-08-30T15:06:59;27.60;1.00
39401;DHT22;54391;50.000;7.360;2022-08-30T15:09:28;27.70;1.00
39401;DHT22;54391;50.000;7.360;2022-08-30T15:11:58;27.90;1.00
39401;DHT22;54391;50.000;7.360;2022-08-30T15:14:29;27.70;1.00
39401;DHT22;54391;50.000;7.360;2022-08-30T15:16:58;27.60;1.00
39401;DHT22;54391;50.000;7.360;2022-08-30T15:19:28;27.20;1.00
39401;DHT22;54391;50.000;7.360;2022-08-30T15:22:00;27.50;1.00
39401;DHT22;54391;50.000;7.360;2022-08-30T15:24:29;27.30;1.00
39401;DHT22;54391;50.000;7.360;2022-08-30T15:26:57;27.30;1.00
39401;DHT22;54391;50.000;7.360;2022-08-30T15:29:24;27.20;1.00
39401;DHT22;54391;50.000;7.360;2022-08-30T15:31:52;27.10;1.00
39401;DHT22;54391;50.000;7.360;2022-08-30T15:34:21;27.20;1.00
39401;DHT22;54391;50.000;7.360;2022-08-30T15:36:49;27.00;1.00
39401;DHT22;54391;50.000;7.360;2022-08-30T15:39:19;27.10;1.00
39401;DHT22;54391;50.000;7.360;2022-08-30T15:41:46;27.20;1.00
39401;DHT22;54391;50.000;7.360;2022-08-30T15:44:14;27.30;1.00
39401;DHT22;54391;50.000;7.360;2022-08-30T15:46:43;27.10;1.00
39401;DHT22;54391;50.000;7.360;2022-08-30T15:49:13;27.20;1.00
39401;DHT22;54391;50.000;7.360;2022-08-30T15:51:42;27.30;1.00
39401;DHT22;54391;50.000;7.360;2022-08-30T15:54:11;27.20;1.00
39401;DHT22;54391;50.000;7.360;2022-08-30T15:56:41;27.20;1.00
39401;DHT22;54391;50.000;7.360;2022-08-30T15:59:09;27.10;1.00
39401;DHT22;54391;50.000;7.360;2022-08-30T16:01:40;27.50;1.00
39401;DHT22;54391;50.000;7.360;2022-08-30T16:04:07;27.40;1.00
39401;DHT22;54391;50.000;7.360;2022-08-30T16:06:36;27.10;1.00
39401;DHT22;54391;50.000;7.360;2022-08-30T16:09:05;26.70;1.00
39401;DHT22;54391;50.000;7.360;2022-08-30T16:11:33;26.50;1.00
39401;DHT22;54391;50.000;7.360;2022-08-30T16:14:03;26.50;1.00
39401;DHT22;54391;50.000;7.360;2022-08-30T16:16:31;26.40;1.00
39401;DHT22;54391;50.000;7.360;2022-08-30T16:18:58;26.30;1.00
39401;DHT22;54391;50.000;7.360;2022-08-30T16:21:27;26.40;1.00
39401;DHT22;54391;50.000;7.360;2022-08-30T16:23:56;26.30;1.00
39401;DHT22;54391;50.000;7.360;2022-08-30T16:26:24;26.10;1.00
39401;DHT22;54391;50.000;7.360;2022-08-30T16:28:53;26.00;1.00
39401;DHT22;54391;50.000;7.360;2022-08-30T16:31:24;26.00;1.00
39401;DHT22;54391;50.000;7.360;2022-08-30T16:33:52;26.00;1.00
39401;DHT22;54391;50.000;7.360;2022-08-30T16:36:19;25.90;1.00
39401;DHT22;54391;50.000;7.360;2022-08-30T16:38:47;25.90;1.00
39401;DHT22;54391;50.000;7.360;2022-08-30T16:41:15;25.80;1.00
39401;DHT22;54391;50.000;7.360;2022-08-30T16:43:44;25.70;1.00
39401;DHT22;54391;50.000;7.360;2022-08-30T16:46:13;25.60;1.00
39401;DHT22;54391;50.000;7.360;2022-08-30T16:48:43;25.50;1.00
39401;DHT22;54391;50.000;7.360;2022-08-30T16:51:13;25.40;1.00
39401;DHT22;54391;50.000;7.360;2022-08-30T16:53:41;25.40;1.00
39401;DHT22;54391;50.000;7.360;2022-08-30T16:56:12;25.50;1.00
39401;DHT22;54391;50.000;7.360;2022-08-30T16:58:40;25.40;1.00
39401;DHT22;54391;50.000;7.360;2022-08-30T17:01:08;25.40;1.00